Terminal Aerodrome Forecast
Issued by NWS

Home | Current Version | Previous Version | Text Only | Print | Product List | Glossary On
Versions: 1 2 3 4 5 6 7 8 9 10 11 12 13
000
FTUS45 KRIW 191720
TAFCPR
TAF
KCPR 191720Z 1918/2018 22024G36KT P6SM SCT250
     FM200100 23015G25KT P6SM SCT090 BKN250
     FM200500 25010KT P6SM VCSH SCT025 BKN050
     FM201000 24014KT P6SM VCSH SCT020 OVC040=

USA.gov is the U.S. government's official web portal to all federal, state and local government web resources and services.